Time;durP1;ratioP1;P1;durP2;ratioP2;P2;SDS_P1;SDS_P2;PMS_P1;PMS_P2;Temp;Humidity;BMP_temperature;BMP_pressure;BME280_temperature;BME280_humidity;BME280_pressure;Samples;Min_cycle;Max_cycle;Signal;HPM_P1;HPM_P2
2023/12/14 00:01:48;;;;;;;0.20;0.20;;;;;;;2.65;82.67;97605.33;105184;1258;71662;-26
2023/12/14 00:04:15;;;;;;;0.60;0.50;;;;;;;2.44;83.34;97606.50;105485;1258;61011;-25
2023/12/14 00:06:42;;;;;;;1.30;0.90;;;;;;;2.21;84.05;97613.37;105459;1260;61172;-26
2023/12/14 00:09:09;;;;;;;1.60;1.30;;;;;;;2.23;84.86;97615.85;105497;1257;73037;-25
2023/12/14 00:11:39;;;;;;;0.70;0.60;;;;;;;2.63;83.57;97603.95;105573;1261;74789;-25
2023/12/14 00:14:06;;;;;;;0.90;0.60;;;;;;;2.72;82.72;97604.14;105552;1257;72534;-26
2023/12/14 00:16:33;;;;;;;0.50;0.50;;;;;;;2.53;83.26;97600.30;105600;1258;61063;-25
2023/12/14 00:19:01;;;;;;;0.70;0.50;;;;;;;2.27;84.19;97598.59;105416;1259;61094;-26
2023/12/14 00:21:28;;;;;;;0.50;0.40;;;;;;;2.13;85.08;97596.77;105217;1259;73018;-26
2023/12/14 00:23:55;;;;;;;0.40;0.40;;;;;;;2.61;84.01;97594.48;105542;1261;72209;-25
2023/12/14 00:26:22;;;;;;;0.50;0.40;;;;;;;2.81;82.75;97588.95;105576;1262;72675;-26
2023/12/14 00:28:49;;;;;;;1.30;1.10;;;;;;;2.71;82.62;97590.35;105577;1259;61020;-26
2023/12/14 00:31:17;;;;;;;1.80;1.20;;;;;;;2.47;83.60;97590.65;105239;1264;61137;-26
2023/12/14 00:33:44;;;;;;;0.60;0.60;;;;;;;2.20;84.49;97587.39;105369;1258;73443;-26
2023/12/14 00:36:21;;;;;;;0.90;0.50;;;;;;;2.26;85.26;97588.55;105356;1260;74372;-26
2023/12/14 00:38:48;;;;;;;0.60;0.50;;;;;;;2.69;83.63;97584.15;105408;1257;72476;-25
2023/12/14 00:41:15;;;;;;;0.90;0.60;;;;;;;2.78;82.90;97583.44;105539;1257;61072;-26
2023/12/14 00:43:42;;;;;;;0.70;0.60;;;;;;;2.60;83.10;97574.50;105115;1263;61159;-26
2023/12/14 00:46:09;;;;;;;0.80;0.70;;;;;;;2.30;84.28;97577.33;105201;1257;72847;-26
2023/12/14 00:48:36;;;;;;;1.60;0.90;;;;;;;2.37;84.63;97577.31;105582;1260;74108;-26
2023/12/14 00:51:04;;;;;;;0.50;0.50;;;;;;;2.83;83.04;97571.00;105287;1257;72769;-26
2023/12/14 00:53:31;;;;;;;0.80;0.50;;;;;;;2.87;82.24;97567.23;105237;1256;61158;-25
2023/12/14 00:55:58;;;;;;;1.60;0.40;;;;;;;2.69;82.45;97565.79;105598;1258;61173;-26
2023/12/14 00:58:25;;;;;;;1.30;0.60;;;;;;;2.42;83.45;97561.88;105569;1259;73158;-26
2023/12/14 01:00:54;;;;;;;0.90;0.60;;;;;;;2.28;84.44;97561.33;105619;1257;74327;-26
2023/12/14 01:03:21;;;;;;;1.00;0.60;;;;;;;2.69;83.51;97565.80;105495;1259;72620;-25
2023/12/14 01:05:48;;;;;;;0.90;0.60;;;;;;;2.68;82.83;97556.46;105453;1257;61150;-26
2023/12/14 01:08:15;;;;;;;1.00;0.60;;;;;;;2.59;83.07;97557.25;105153;1261;61173;-26
2023/12/14 01:10:42;;;;;;;0.70;0.50;;;;;;;2.35;83.88;97553.84;105442;1259;72470;-26
2023/12/14 01:14:51;;;;;;;0.70;0.60;;;;;;;2.64;83.83;97559.14;102648;1294;600020;-24
2023/12/14 01:17:19;;;;;;;1.10;0.60;;;;;;;2.99;82.03;97558.11;105014;1267;61145;-25
2023/12/14 01:19:47;;;;;;;0.80;0.60;;;;;;;2.89;81.96;97552.87;104820;1271;61170;-24
2023/12/14 01:22:14;;;;;;;0.60;0.50;;;;;;;2.60;82.86;97543.35;104872;1267;72227;-24
2023/12/14 01:24:43;;;;;;;1.30;0.90;;;;;;;2.34;83.98;97546.73;104819;1269;74272;-24
2023/12/14 01:27:13;;;;;;;2.30;1.60;;;;;;;2.72;83.18;97544.70;104845;1269;72689;-24
2023/12/14 01:37:02;;;;;;;0.70;0.40;;;;;;;2.40;84.34;97543.58;102602;1294;600373;-26
2023/12/14 01:39:30;;;;;;;0.60;0.50;;;;;;;2.59;84.08;97540.47;104854;1268;61107;-26
2023/12/14 01:41:57;;;;;;;0.30;0.30;;;;;;;2.88;82.51;97541.27;104836;1273;61117;-26
2023/12/14 01:44:25;;;;;;;0.50;0.30;;;;;;;2.80;82.53;97545.09;104825;1273;70689;-27
2023/12/14 01:46:53;;;;;;;0.30;0.30;;;;;;;2.59;82.98;97537.55;104815;1272;72127;-24
2023/12/14 01:49:21;;;;;;;0.30;0.30;;;;;;;2.33;84.07;97534.11;104753;1267;72667;-26
2023/12/14 01:51:48;;;;;;;0.30;0.30;;;;;;;2.55;84.30;97526.69;106103;1263;3520132;-25
2023/12/14 01:54:16;;;;;;;0.70;0.30;;;;;;;2.93;82.77;97521.59;108770;1263;60109;-25
2023/12/14 01:56:44;;;;;;;0.60;0.50;;;;;;;2.97;82.13;97522.60;108774;1263;72274;-25
2023/12/14 01:59:11;;;;;;;1.20;0.90;;;;;;;2.78;82.79;97510.14;108731;1263;74253;-25
2023/12/14 02:01:43;;;;;;;0.90;0.70;;;;;;;2.42;84.08;97505.39;108734;1269;72691;-25
2023/12/14 02:04:12;;;;;;;0.90;0.60;;;;;;;2.66;84.10;97500.51;108486;1267;59276;-25
2023/12/14 02:06:39;;;;;;;0.50;0.40;;;;;;;3.06;82.43;97489.69;108746;1263;60004;-25
2023/12/14 02:09:07;;;;;;;0.50;0.30;;;;;;;3.00;82.05;97488.83;108774;1267;73034;-25
2023/12/14 02:11:35;;;;;;;0.40;0.30;;;;;;;2.82;82.50;97490.29;108715;1263;73597;-25
2023/12/14 02:14:04;;;;;;;0.30;0.30;;;;;;;2.60;83.33;97485.27;108768;1264;72814;-25
2023/12/14 02:16:32;;;;;;;0.30;0.30;;;;;;;2.49;83.95;97489.48;108698;1263;60891;-25
2023/12/14 02:19:00;;;;;;;0.40;0.40;;;;;;;3.00;83.17;97491.05;108755;1266;60088;-25
2023/12/14 02:21:28;;;;;;;0.50;0.40;;;;;;;3.16;81.67;97491.70;108716;1264;73046;-25
2023/12/14 02:23:55;;;;;;;0.90;0.30;;;;;;;3.03;81.61;97485.14;108762;1263;74309;-25
2023/12/14 02:26:23;;;;;;;0.30;0.30;;;;;;;2.72;82.45;97488.63;108735;1263;71455;-25
2023/12/14 02:28:51;;;;;;;0.90;0.40;;;;;;;2.56;83.05;97485.14;108838;1263;58880;-25
2023/12/14 02:31:19;;;;;;;0.80;0.70;;;;;;;2.34;83.81;97487.98;108706;1263;58729;-25
2023/12/14 02:33:46;;;;;;;0.70;0.60;;;;;;;2.68;83.39;97481.08;108764;1263;73032;-25
2023/12/14 02:36:14;;;;;;;0.40;0.40;;;;;;;3.04;81.54;97482.47;108638;1269;73319;-25
2023/12/14 02:38:42;;;;;;;0.50;0.30;;;;;;;2.87;81.33;97481.85;108812;1264;72654;-25
2023/12/14 02:41:10;;;;;;;0.40;0.40;;;;;;;2.75;81.50;97482.94;108699;1263;59239;-25
2023/12/14 02:43:40;;;;;;;0.70;0.40;;;;;;;2.50;82.06;97478.91;108708;1264;60215;-25
2023/12/14 02:46:08;;;;;;;0.40;0.40;;;;;;;2.23;83.00;97477.65;108823;1263;73045;-24
2023/12/14 02:48:36;;;;;;;0.30;0.20;;;;;;;2.30;83.66;97470.64;108690;1263;73225;-25
2023/12/14 02:51:04;;;;;;;0.30;0.30;;;;;;;2.93;81.77;97472.36;108755;1264;72704;-25
2023/12/14 02:53:32;;;;;;;0.60;0.20;;;;;;;3.16;80.26;97468.55;108710;1264;58885;-25
2023/12/14 02:56:03;;;;;;;0.40;0.30;;;;;;;2.99;79.92;97467.05;108701;1267;60061;-25
2023/12/14 02:58:30;;;;;;;0.30;0.30;;;;;;;2.72;80.87;97461.20;108548;1270;71379;-25
2023/12/14 03:00:58;;;;;;;0.40;0.30;;;;;;;2.39;81.89;97457.27;108695;1264;74176;-25
2023/12/14 03:03:25;;;;;;;0.30;0.30;;;;;;;2.21;82.63;97455.67;108785;1263;72718;-25
2023/12/14 03:05:54;;;;;;;0.20;0.20;;;;;;;2.26;83.34;97449.14;108770;1264;60882;-25
2023/12/14 03:08:22;;;;;;;0.40;0.30;;;;;;;2.93;81.20;97447.80;108623;1264;60466;-25
2023/12/14 03:10:50;;;;;;;0.20;0.20;;;;;;;3.08;79.63;97446.48;108772;1264;73039;-25
2023/12/14 03:13:17;;;;;;;0.40;0.40;;;;;;;2.93;79.88;97446.66;109071;1261;74355;-25
2023/12/14 03:15:45;;;;;;;0.20;0.20;;;;;;;2.71;80.46;97449.98;109206;1257;71688;-25
2023/12/14 03:18:13;;;;;;;0.50;0.40;;;;;;;2.35;81.65;97441.30;109052;1261;58784;-25
2023/12/14 03:20:41;;;;;;;0.80;0.50;;;;;;;2.10;82.96;97438.96;109211;1257;60002;-25
2023/12/14 03:23:08;;;;;;;0.60;0.50;;;;;;;2.07;83.69;97445.39;109222;1257;72834;-24
2023/12/14 03:25:36;;;;;;;1.30;0.90;;;;;;;2.62;82.03;97446.70;109208;1257;74320;-25
2023/12/14 03:28:04;;;;;;;1.50;0.80;;;;;;;2.83;80.66;97442.05;109209;1257;71424;-25
2023/12/14 03:30:31;;;;;;;2.40;1.00;;;;;;;2.84;80.29;97443.90;109062;1263;58806;-24
2023/12/14 03:32:59;;;;;;;1.00;0.50;;;;;;;2.69;80.53;97438.29;109229;1257;58740;-25
2023/12/14 03:35:27;;;;;;;0.70;0.50;;;;;;;2.44;81.30;97434.16;109066;1260;72068;-25
2023/12/14 03:37:54;;;;;;;0.90;0.70;;;;;;;2.05;82.77;97429.58;109081;1258;72633;-24
2023/12/14 03:40:22;;;;;;;0.60;0.50;;;;;;;1.96;83.61;97432.83;109043;1260;72690;-25
2023/12/14 03:42:49;;;;;;;0.30;0.30;;;;;;;2.45;82.68;97429.80;109043;1259;58854;-25
2023/12/14 03:45:17;;;;;;;1.40;0.80;;;;;;;2.83;80.96;97433.16;109086;1260;60013;-25
2023/12/14 03:47:44;;;;;;;0.90;0.60;;;;;;;2.83;80.36;97437.91;109091;1259;73070;-25
2023/12/14 03:50:12;;;;;;;0.50;0.50;;;;;;;2.61;80.70;97422.77;108991;1258;74355;-25
2023/12/14 03:52:40;;;;;;;2.80;1.40;;;;;;;2.44;81.17;97418.56;109053;1259;72776;-24
2023/12/14 03:55:08;;;;;;;4.40;2.30;;;;;;;2.14;82.25;97416.65;109060;1258;58805;-25
2023/12/14 03:57:36;;;;;;;10.80;2.50;;;;;;;1.91;83.27;97416.02;109106;1259;58746;-25
2023/12/14 04:00:04;;;;;;;15.00;5.00;;;;;;;1.97;83.95;97417.00;109062;1260;73107;-25
2023/12/14 04:02:31;;;;;;;5.70;2.40;;;;;;;2.64;82.30;97416.38;108998;1259;73327;-25
2023/12/14 04:04:59;;;;;;;6.40;2.40;;;;;;;2.84;80.61;97420.04;109030;1260;72642;-25
2023/12/14 04:07:27;;;;;;;3.80;2.00;;;;;;;2.45;81.63;97416.39;109016;1259;59000;-25
2023/12/14 04:09:55;;;;;;;2.80;1.80;;;;;;;2.38;81.64;97411.09;109097;1259;58771;-25
2023/12/14 04:12:22;;;;;;;2.60;1.40;;;;;;;2.19;82.42;97414.38;109024;1260;73055;-25
2023/12/14 04:14:51;;;;;;;4.60;2.30;;;;;;;2.08;82.74;97415.52;109065;1258;74331;-24
2023/12/14 04:17:18;;;;;;;1.60;1.10;;;;;;;1.84;84.03;97414.17;109033;1260;73186;-25
2023/12/14 04:19:46;;;;;;;3.40;1.50;;;;;;;2.27;83.47;97417.26;109036;1259;59340;-24
2023/12/14 04:22:13;;;;;;;8.10;3.40;;;;;;;2.65;81.47;97419.08;109090;1258;58760;-25
2023/12/14 04:24:41;;;;;;;10.50;4.10;;;;;;;2.81;80.61;97421.29;109044;1258;73024;-25
2023/12/14 04:27:08;;;;;;;8.50;4.40;;;;;;;2.62;80.85;97419.83;109037;1260;74347;-25
2023/12/14 04:29:36;;;;;;;11.20;5.60;;;;;;;2.45;81.15;97415.59;108971;1258;71422;-25
2023/12/14 04:32:05;;;;;;;6.20;3.70;;;;;;;2.08;82.85;97417.09;109002;1259;58772;-24
2023/12/14 04:34:32;;;;;;;8.30;4.80;;;;;;;1.93;83.45;97424.48;108911;1261;60040;-25
2023/12/14 04:37:00;;;;;;;5.10;2.00;;;;;;;1.87;83.68;97423.89;108939;1260;71799;-25
2023/12/14 04:39:27;;;;;;;4.40;2.60;;;;;;;2.12;83.82;97424.63;109017;1260;74314;-25
2023/12/14 04:41:55;;;;;;;5.20;3.00;;;;;;;2.83;81.66;97432.33;108989;1259;71462;-24
2023/12/14 04:44:23;;;;;;;3.90;2.70;;;;;;;3.05;80.46;97444.49;108943;1258;60074;-25
2023/12/14 04:46:50;;;;;;;5.40;3.40;;;;;;;2.95;79.98;97442.58;108983;1260;59333;-25
2023/12/14 04:49:19;;;;;;;5.50;3.70;;;;;;;2.69;80.29;97432.46;109026;1259;73090;-25
2023/12/14 04:51:46;;;;;;;7.70;4.70;;;;;;;2.23;81.84;97425.20;109053;1258;74515;-24
2023/12/14 04:54:14;;;;;;;7.20;4.90;;;;;;;2.07;82.74;97427.55;109012;1259;72720;-25
2023/12/14 04:56:45;;;;;;;5.50;3.20;;;;;;;1.83;84.01;97421.45;108908;1260;59626;-24
2023/12/14 04:59:13;;;;;;;5.10;2.90;;;;;;;2.35;83.57;97418.85;108954;1259;58996;-25
2023/12/14 05:01:41;;;;;;;7.20;3.10;;;;;;;2.92;80.78;97415.67;108963;1259;73030;-25
2023/12/14 05:04:08;;;;;;;3.10;2.30;;;;;;;2.86;79.94;97409.65;109020;1259;72077;-25
2023/12/14 05:06:38;;;;;;;6.10;3.60;;;;;;;2.56;80.91;97413.23;108936;1260;71466;-25
2023/12/14 05:09:06;;;;;;;6.40;4.00;;;;;;;2.47;81.20;97412.35;108821;1264;59275;-24
2023/12/14 05:11:34;;;;;;;9.00;5.40;;;;;;;2.29;81.61;97410.95;108993;1259;60269;-24
2023/12/14 05:14:02;;;;;;;13.10;7.50;;;;;;;1.88;83.53;97404.13;108992;1259;71796;-24
2023/12/14 05:16:30;;;;;;;13.90;6.40;;;;;;;1.58;85.29;97400.06;109010;1260;73569;-24
2023/12/14 05:18:59;;;;;;;19.70;8.70;;;;;;;2.09;85.06;97407.20;109005;1259;72690;-25
2023/12/14 05:21:26;;;;;;;19.30;10.40;;;;;;;2.78;82.16;97414.84;108988;1259;58836;-25
2023/12/14 05:23:54;;;;;;;16.20;8.70;;;;;;;2.86;80.67;97409.29;108994;1259;59956;-26
2023/12/14 05:26:22;;;;;;;13.60;6.50;;;;;;;2.65;80.85;97401.94;108980;1259;73050;-26
2023/12/14 05:28:49;;;;;;;19.60;9.00;;;;;;;2.35;81.63;97396.92;108964;1260;74336;-26
2023/12/14 05:31:18;;;;;;;18.90;9.10;;;;;;;2.06;82.94;97395.10;109030;1259;72706;-26
2023/12/14 05:33:45;;;;;;;19.00;9.40;;;;;;;1.80;84.37;97397.52;108998;1259;59273;-27
2023/12/14 05:36:13;;;;;;;18.20;7.20;;;;;;;1.54;85.60;97396.93;108991;1259;60034;-27
2023/12/14 05:38:41;;;;;;;27.20;11.30;;;;;;;2.07;85.21;97399.13;108911;1263;73044;-28
2023/12/14 05:41:10;;;;;;;84.70;41.80;;;;;;;2.55;82.86;97395.46;108913;1260;73073;-28
2023/12/14 05:43:37;;;;;;;15.90;9.00;;;;;;;2.61;81.46;97390.56;109014;1259;71659;-26
2023/12/14 05:46:05;;;;;;;34.40;21.50;;;;;;;2.46;81.98;97397.50;108971;1260;58810;-25
2023/12/14 05:48:33;;;;;;;28.50;17.40;;;;;;;2.05;83.44;97397.74;109001;1260;60008;-25
2023/12/14 05:51:01;;;;;;;28.50;18.20;;;;;;;1.85;84.27;97396.10;108973;1260;72609;-26
2023/12/14 05:53:29;;;;;;;31.20;18.90;;;;;;;1.62;85.28;97393.30;108924;1260;73357;-26
2023/12/14 05:55:56;;;;;;;8.40;5.40;;;;;;;1.45;87.26;97392.73;108930;1261;70583;-25
2023/12/14 05:58:24;;;;;;;11.00;6.50;;;;;;;1.89;85.84;97395.98;108941;1260;58856;-25
2023/12/14 06:00:52;;;;;;;20.90;12.60;;;;;;;2.24;83.72;97392.98;109049;1259;58716;-26
2023/12/14 06:03:20;;;;;;;27.50;16.00;;;;;;;1.99;84.39;97392.38;108937;1260;73818;-26
2023/12/14 06:05:48;;;;;;;12.40;8.10;;;;;;;2.03;84.29;97394.14;108917;1260;74328;-26
2023/12/14 06:08:15;;;;;;;20.70;10.50;;;;;;;1.83;85.23;97392.84;108917;1260;72634;-26
2023/12/14 06:10:43;;;;;;;18.60;11.20;;;;;;;1.71;85.68;97388.73;108946;1260;58763;-27
2023/12/14 06:13:11;;;;;;;28.40;15.60;;;;;;;1.35;87.48;97390.20;108898;1260;59074;-27
2023/12/14 06:15:39;;;;;;;26.90;14.00;;;;;;;1.26;88.83;97394.44;108856;1260;73838;-27
2023/12/14 06:18:06;;;;;;;33.50;19.80;;;;;;;1.59;87.47;97392.79;108890;1260;74341;-27
2023/12/14 06:20:34;;;;;;;27.00;14.30;;;;;;;1.59;86.96;97394.16;108960;1260;71691;-26
2023/12/14 06:23:02;;;;;;;37.80;21.40;;;;;;;1.69;86.74;97397.23;108852;1262;58892;-26
2023/12/14 06:25:29;;;;;;;13.20;8.40;;;;;;;1.29;88.14;97396.30;108980;1260;60104;-26
2023/12/14 06:27:57;;;;;;;20.20;11.60;;;;;;;1.21;89.05;97401.94;108990;1260;72574;-26
2023/12/14 06:30:25;;;;;;;26.60;14.70;;;;;;;0.91;90.57;97402.66;108937;1260;73048;-26
2023/12/14 06:32:52;;;;;;;104.00;51.70;;;;;;;1.05;91.09;97405.27;108955;1260;70415;-26
2023/12/14 06:35:20;;;;;;;103.80;48.90;;;;;;;1.54;88.67;97411.83;108905;1260;58870;-26
2023/12/14 06:37:48;;;;;;;54.80;31.70;;;;;;;1.86;86.07;97412.96;108879;1260;58877;-26
2023/12/14 06:40:16;;;;;;;79.90;41.80;;;;;;;1.77;86.36;97409.36;108940;1260;71551;-26
2023/12/14 06:42:43;;;;;;;115.50;65.50;;;;;;;1.53;86.88;97402.84;108936;1260;74564;-26
2023/12/14 06:45:11;;;;;;;60.00;34.60;;;;;;;1.31;88.82;97398.57;108894;1260;72665;-26
2023/12/14 06:47:41;;;;;;;16.20;10.90;;;;;;;1.16;89.10;97398.73;108919;1260;59587;-26
2023/12/14 06:50:10;;;;;;;37.90;21.80;;;;;;;1.47;88.63;97396.23;108918;1261;60094;-26
2023/12/14 06:52:37;;;;;;;43.60;25.00;;;;;;;1.75;86.91;97396.81;108897;1260;73875;-26
2023/12/14 06:55:06;;;;;;;98.70;58.70;;;;;;;1.47;87.31;97397.42;108923;1260;74300;-26
2023/12/14 06:57:35;;;;;;;58.20;34.50;;;;;;;1.40;88.40;97405.41;108773;1260;71441;-26
2023/12/14 07:00:03;;;;;;;39.90;23.40;;;;;;;1.41;88.38;97410.36;108910;1260;58795;-25
2023/12/14 07:02:31;;;;;;;55.00;33.20;;;;;;;1.30;88.51;97411.60;108957;1260;58793;-25
2023/12/14 07:04:59;;;;;;;60.90;32.30;;;;;;;0.99;90.44;97413.23;108905;1260;73989;-25
2023/12/14 07:07:27;;;;;;;43.70;21.80;;;;;;;1.79;88.28;97411.08;108926;1260;74342;-25
2023/12/14 07:09:54;;;;;;;54.30;28.40;;;;;;;2.19;84.84;97416.11;108896;1260;71409;-25
2023/12/14 07:12:22;;;;;;;39.50;20.10;;;;;;;1.89;85.49;97417.51;108920;1260;59245;-25
2023/12/14 07:14:50;;;;;;;117.80;61.70;;;;;;;1.51;87.27;97414.60;108928;1260;60171;-25
2023/12/14 07:17:18;;;;;;;52.30;28.90;;;;;;;1.59;87.33;97411.83;109118;1257;73844;-24
2023/12/14 07:19:45;;;;;;;38.70;19.90;;;;;;;1.42;87.98;97418.62;109127;1256;73036;-24
2023/12/14 07:22:13;;;;;;;86.00;38.10;;;;;;;1.65;87.70;97421.64;109121;1256;71462;-24
2023/12/14 07:24:41;;;;;;;91.30;45.30;;;;;;;2.16;84.89;97415.29;109075;1257;58918;-24
2023/12/14 07:27:19;;;;;;;98.10;53.60;;;;;;;2.35;83.60;97420.06;109032;1256;58735;-24
2023/12/14 07:29:47;;;;;;;71.80;43.40;;;;;;;2.05;84.32;97421.02;109135;1257;73842;-23
2023/12/14 07:32:15;;;;;;;141.90;75.50;;;;;;;1.74;85.70;97422.54;109139;1256;74326;-24
2023/12/14 07:34:44;;;;;;;92.30;47.30;;;;;;;1.62;86.86;97420.33;109095;1257;72692;-24
2023/12/14 07:37:12;;;;;;;31.40;17.30;;;;;;;1.79;86.48;97423.77;109106;1257;58849;-24
2023/12/14 07:39:39;;;;;;;47.30;25.00;;;;;;;2.15;84.90;97426.84;109004;1256;60025;-23
2023/12/14 07:42:07;;;;;;;87.70;35.00;;;;;;;2.66;82.34;97426.52;109131;1257;72171;-24
2023/12/14 07:44:35;;;;;;;34.30;17.40;;;;;;;2.82;81.13;97431.02;109080;1256;74736;-23
2023/12/14 07:47:03;;;;;;;62.20;31.50;;;;;;;2.57;81.54;97437.83;109277;1256;71400;-23
2023/12/14 07:49:32;;;;;;;49.30;27.10;;;;;;;2.28;83.20;97436.15;109269;1257;59360;-23
2023/12/14 07:52:00;;;;;;;25.70;16.10;;;;;;;2.05;84.01;97438.18;109030;1257;59990;-23
2023/12/14 07:54:28;;;;;;;48.00;27.00;;;;;;;1.95;84.84;97438.67;109274;1256;71572;-23
2023/12/14 07:56:56;;;;;;;44.70;19.40;;;;;;;1.81;85.59;97438.80;109163;1256;74418;-24
2023/12/14 07:59:24;;;;;;;70.90;36.70;;;;;;;2.03;85.63;97440.20;109045;1257;72692;-25
2023/12/14 08:01:52;;;;;;;91.60;47.70;;;;;;;2.91;81.86;97444.23;109124;1257;59179;-24
2023/12/14 08:04:20;;;;;;;129.80;72.10;;;;;;;2.59;81.81;97442.81;109128;1257;58747;-24
2023/12/14 08:06:48;;;;;;;88.80;42.80;;;;;;;2.46;82.74;97445.13;109148;1257;71626;-26
2023/12/14 08:09:16;;;;;;;53.10;27.40;;;;;;;2.62;82.10;97448.27;109069;1256;74301;-25
2023/12/14 08:11:44;;;;;;;22.90;14.10;;;;;;;2.13;83.76;97448.17;109112;1257;72638;-26
2023/12/14 08:14:11;;;;;;;31.00;18.20;;;;;;;1.85;85.41;97450.73;109064;1256;59317;-26
2023/12/14 08:16:40;;;;;;;21.30;11.10;;;;;;;2.26;84.62;97451.37;109137;1257;59170;-25
2023/12/14 08:19:07;;;;;;;36.80;22.40;;;;;;;2.55;82.75;97451.48;109323;1256;73829;-26
2023/12/14 08:21:35;;;;;;;36.00;25.60;;;;;;;2.80;80.99;97452.89;109278;1256;73030;-26
2023/12/14 08:24:04;;;;;;;11.00;6.20;;;;;;;2.76;80.94;97457.30;109284;1257;72640;-26
2023/12/14 08:26:31;;;;;;;8.70;5.50;;;;;;;2.58;81.45;97457.61;108984;1257;59279;-27
2023/12/14 08:28:59;;;;;;;11.40;8.00;;;;;;;2.38;82.62;97453.91;109160;1256;60123;-27
2023/12/14 08:31:27;;;;;;;15.70;10.00;;;;;;;2.14;83.45;97452.04;109177;1256;75417;-27
2023/12/14 08:33:55;;;;;;;11.20;6.40;;;;;;;1.97;84.42;97452.21;109166;1257;74331;-26
2023/12/14 08:36:24;;;;;;;9.40;5.00;;;;;;;1.96;85.23;97453.20;109057;1257;72747;-27
2023/12/14 08:38:54;;;;;;;5.80;2.90;;;;;;;2.56;82.65;97455.70;108937;1260;58743;-27
2023/12/14 08:41:24;;;;;;;5.20;3.60;;;;;;;2.82;80.88;97460.30;108942;1259;59657;-27
2023/12/14 08:43:55;;;;;;;9.90;5.20;;;;;;;2.74;80.77;97460.70;108965;1258;74123;-27
2023/12/14 08:46:27;;;;;;;10.20;5.90;;;;;;;2.63;81.39;97465.52;109039;1258;74463;-26
2023/12/14 08:48:57;;;;;;;12.80;6.00;;;;;;;2.39;82.10;97464.16;108922;1258;71421;-25
2023/12/14 08:51:27;;;;;;;8.30;5.00;;;;;;;2.24;82.95;97470.15;108978;1258;59354;-25
2023/12/14 08:53:56;;;;;;;8.70;5.30;;;;;;;2.06;83.86;97471.29;108970;1259;60042;-25
2023/12/14 08:56:26;;;;;;;11.20;4.70;;;;;;;2.02;84.18;97472.44;108983;1260;72974;-25
2023/12/14 08:58:59;;;;;;;17.50;7.80;;;;;;;2.48;83.47;97472.24;108977;1258;74353;-25
2023/12/14 09:01:29;;;;;;;20.30;8.30;;;;;;;2.93;81.00;97474.41;109041;1259;72667;-25
2023/12/14 09:04:00;;;;;;;20.70;7.60;;;;;;;3.20;79.70;97479.58;108977;1259;60137;-25
2023/12/14 09:06:30;;;;;;;22.50;10.10;;;;;;;3.00;79.90;97479.67;108997;1258;58975;-24
2023/12/14 09:09:00;;;;;;;23.10;8.40;;;;;;;2.76;80.76;97478.19;109016;1258;73957;-24
2023/12/14 09:11:32;;;;;;;21.40;8.90;;;;;;;2.68;81.27;97476.27;108964;1258;74716;-24
2023/12/14 09:14:02;;;;;;;16.20;7.30;;;;;;;2.59;81.70;97478.47;108948;1258;72832;-24
2023/12/14 09:16:32;;;;;;;9.30;4.30;;;;;;;2.46;82.60;97478.86;108956;1259;60921;-24
2023/12/14 09:19:03;;;;;;;6.70;3.10;;;;;;;2.99;81.44;97481.46;108983;1258;59891;-24
2023/12/14 09:21:33;;;;;;;10.30;4.00;;;;;;;3.45;78.91;97481.41;108973;1258;72253;-24
2023/12/14 09:24:15;;;;;;;6.10;2.80;;;;;;;3.56;78.06;97477.00;108971;1257;73200;-23
2023/12/14 09:26:45;;;;;;;4.80;2.30;;;;;;;3.46;77.92;97478.30;108958;1258;72701;-24
2023/12/14 09:29:16;;;;;;;9.30;5.30;;;;;;;3.22;78.68;97475.52;108963;1258;59544;-24
2023/12/14 09:31:47;;;;;;;10.30;6.10;;;;;;;2.66;81.18;97472.77;108967;1259;60606;-23
2023/12/14 09:34:17;;;;;;;9.40;5.90;;;;;;;2.53;82.00;97469.98;108907;1259;72649;-24
2023/12/14 09:44:35;;;;;;;14.70;6.60;;;;;;;3.18;79.69;97468.23;102582;1292;600113;-22
2023/12/14 09:47:03;;;;;;;7.90;3.90;;;;;;;2.75;81.23;97471.43;104765;1267;61125;-23
2023/12/14 09:57:15;;;;;;;9.60;4.40;;;;;;;2.17;84.92;97464.69;102584;1292;600224;-23
2023/12/14 09:59:51;;;;;;;8.00;3.30;;;;;;;2.34;84.02;97466.06;104870;1267;62124;-24
2023/12/14 10:02:19;;;;;;;4.10;2.30;;;;;;;2.90;81.71;97475.14;104860;1265;61142;-24
2023/12/14 10:04:47;;;;;;;2.20;1.40;;;;;;;2.88;81.09;97481.09;104816;1272;72456;-24
2023/12/14 10:07:16;;;;;;;2.70;1.20;;;;;;;2.63;81.81;97480.06;104812;1271;74508;-24
2023/12/14 10:09:44;;;;;;;3.10;1.80;;;;;;;2.42;82.69;97485.35;102255;1272;3576108;-26
2023/12/14 10:12:12;;;;;;;2.90;1.50;;;;;;;2.30;83.53;97488.77;104879;1264;61337;-25
2023/12/14 10:14:40;;;;;;;3.40;2.20;;;;;;;2.64;82.89;97495.90;105202;1264;61243;-24
2023/12/14 10:24:47;;;;;;;4.10;2.30;;;;;;;2.44;82.20;97493.21;102568;1293;600075;-24
2023/12/14 10:27:16;;;;;;;4.80;2.50;;;;;;;2.39;82.33;97492.08;104799;1266;61178;-24
2023/12/14 10:29:45;;;;;;;3.70;2.30;;;;;;;2.10;83.64;97494.62;104777;1266;61088;-25
2023/12/14 10:32:14;;;;;;;4.00;2.20;;;;;;;2.15;83.99;97495.11;104862;1266;73345;-24
2023/12/14 10:34:42;;;;;;;11.50;3.80;;;;;;;2.43;82.70;97493.28;104840;1267;74258;-25
2023/12/14 10:37:10;;;;;;;4.50;3.20;;;;;;;2.37;82.80;97495.98;104619;1272;74786;-24
2023/12/14 10:39:38;;;;;;;2.80;1.90;;;;;;;2.48;82.01;97496.00;102558;1260;61302;-24
2023/12/14 10:42:05;;;;;;;4.90;1.80;;;;;;;2.23;82.83;97498.98;105237;1260;73240;-25
2023/12/14 10:44:46;;;;;;;8.80;4.40;;;;;;;1.99;83.68;97507.24;105252;1264;75421;-24
2023/12/14 10:55:23;;;;;;;2.10;1.70;;;;;;;2.06;83.97;97519.92;102730;1290;599487;-22
2023/12/14 10:57:54;;;;;;;1.80;1.20;;;;;;;1.78;85.61;97518.58;104858;1272;61145;-22
2023/12/14 11:08:13;;;;;;;7.70;3.60;;;;;;;1.95;85.93;97534.39;102635;1294;600626;-24
2023/12/14 11:10:45;;;;;;;3.60;2.30;;;;;;;2.09;84.09;97530.15;104887;1270;62842;-23
2023/12/14 11:13:14;;;;;;;4.10;2.50;;;;;;;1.63;86.08;97530.30;104829;1273;61816;-23
2023/12/14 11:15:51;;;;;;;8.40;4.50;;;;;;;1.61;86.36;97533.64;105098;1270;72212;-24
2023/12/14 11:18:18;;;;;;;2.50;1.90;;;;;;;1.53;86.88;97542.58;104783;1273;74322;-23
2023/12/14 11:21:00;;;;;;;5.60;3.80;;;;;;;1.61;86.71;97549.02;102120;1270;3694880;-24
2023/12/14 11:23:38;;;;;;;3.50;2.70;;;;;;;1.76;86.10;97555.04;104900;1271;61983;-23
2023/12/14 11:26:09;;;;;;;3.10;2.40;;;;;;;2.18;84.05;97554.31;104898;1270;61707;-24
2023/12/14 11:36:21;;;;;;;3.50;2.20;;;;;;;1.59;87.18;97567.33;102578;1292;601027;-22
2023/12/14 11:38:50;;;;;;;3.40;2.70;;;;;;;2.05;84.50;97572.20;104811;1267;61104;-22
2023/12/14 11:41:25;;;;;;;3.30;2.50;;;;;;;2.16;83.42;97572.61;104742;1267;61174;-24
2023/12/14 11:43:53;;;;;;;4.00;2.30;;;;;;;1.76;84.46;97575.60;104867;1272;73258;-24
2023/12/14 11:46:21;;;;;;;4.10;2.00;;;;;;;1.39;85.96;97576.17;104794;1267;74259;-24
2023/12/14 11:48:49;;;;;;;3.20;2.90;;;;;;;1.25;86.55;97576.58;101921;1273;3897267;-25
2023/12/14 11:51:17;;;;;;;3.70;2.30;;;;;;;0.88;88.83;97584.66;104842;1267;61173;-25
2023/12/14 11:53:49;;;;;;;3.90;2.60;;;;;;;1.48;86.57;97588.23;104827;1265;61964;-24
2023/12/14 11:56:18;;;;;;;2.90;2.10;;;;;;;1.41;85.71;97592.10;104937;1264;73323;-24
2023/12/14 11:58:47;;;;;;;3.90;3.10;;;;;;;1.45;85.48;97598.02;104927;1269;73172;-24
2023/12/14 12:01:19;;;;;;;5.40;4.00;;;;;;;1.26;86.64;97599.96;105201;1267;72767;-24
2023/12/14 12:03:47;;;;;;;5.20;3.30;;;;;;;1.10;86.61;97596.02;105155;1263;61231;-24
2023/12/14 12:06:27;;;;;;;2.90;2.20;;;;;;;1.10;87.06;97598.97;105036;1264;61618;-24
2023/12/14 12:08:55;;;;;;;3.50;2.40;;;;;;;1.39;86.10;97604.88;105170;1267;75316;-24
2023/12/14 12:11:24;;;;;;;4.90;2.90;;;;;;;1.56;84.57;97610.80;105188;1266;72282;-23
2023/12/14 12:13:54;;;;;;;4.20;2.60;;;;;;;1.38;85.19;97611.32;104893;1266;73523;-24
2023/12/14 12:16:22;;;;;;;7.50;3.70;;;;;;;1.17;85.52;97616.06;104890;1263;61229;-24
2023/12/14 12:18:50;;;;;;;8.90;4.60;;;;;;;0.97;86.93;97623.05;105252;1266;61176;-24
2023/12/14 12:21:19;;;;;;;6.10;3.40;;;;;;;1.13;86.31;97625.06;105247;1263;72668;-24
2023/12/14 12:23:47;;;;;;;7.00;3.80;;;;;;;1.24;85.41;97628.09;105134;1263;74283;-24
2023/12/14 12:26:15;;;;;;;4.00;3.00;;;;;;;1.12;85.97;97633.55;105211;1263;73717;-24
2023/12/14 12:28:43;;;;;;;7.10;4.80;;;;;;;1.00;86.30;97638.38;105200;1264;61532;-24
2023/12/14 12:31:11;;;;;;;5.80;3.40;;;;;;;0.74;87.68;97644.30;105127;1262;61097;-24